Archival Weather

Heathrow

Heathrow, United Kingdom (EGLL)

Report from: Thursday, June 23, 2022 5:50 PM BST
Current time: Tuesday, August 16, 2022 8:03 AM BST

Current weather
Weather history
Weather forecast

Temperature25.0°C (77.0°F)
Dew point11.0°C (51.8°F)
Winds 2 kts (1 m/s, 2.3 mph) Vrb
Winds variableWinds variable
Visibility6.2 mi. (10 km)
Clouds Sky clear
Altimeter29.74 in.Hg (1007 mB)
Relative humidity41 %
Density altitude1,554 ft. (474 m)
Remarks Fully automated report
No clouds detected
No significant changes expected in the next two hours
Flight conditions Visual Meteorological Conditions
Raw dataEGLL 231650Z AUTO VRB02KT 9999 NCD 25/11 Q1007 NOSIG
An error has occurred. This application may no longer respond until reloaded. Reload 🗙